createdAt,value
2022-10-22T00:00:06.476Z,1015.71
2022-10-22T00:00:41.374Z,1015.71
2022-10-22T00:01:04.122Z,1015.81
2022-10-22T00:01:28.624Z,1015.81
2022-10-22T00:02:01.939Z,1015.81
2022-10-22T00:02:33.340Z,1016.02
2022-10-22T00:03:06.566Z,1016.02
2022-10-22T00:03:37.424Z,1015.92
2022-10-22T00:04:07.326Z,1015.81
2022-10-22T00:04:41.673Z,1015.81
2022-10-22T00:05:04.343Z,1015.92
2022-10-22T00:05:26.718Z,1015.92
2022-10-22T00:06:00.889Z,1015.92
2022-10-22T00:06:33.234Z,1015.71
2022-10-22T00:07:04.962Z,1015.71
2022-10-22T00:07:34.960Z,1015.71
2022-10-22T00:08:05.912Z,1015.92
2022-10-22T00:08:41.146Z,1015.92
2022-10-22T00:09:03.723Z,1015.81
2022-10-22T00:09:26.056Z,1015.81
2022-10-22T00:10:01.574Z,1015.81
2022-10-22T00:10:32.981Z,1015.81
2022-10-22T00:11:06.338Z,1015.81
2022-10-22T00:11:36.920Z,1015.71
2022-10-22T00:12:09.671Z,1015.71
2022-10-22T00:12:40.967Z,1015.71
2022-10-22T00:13:03.682Z,1015.71
2022-10-22T00:13:26.580Z,1015.71
2022-10-22T00:14:01.149Z,1015.71
2022-10-22T00:14:33.836Z,1015.71
2022-10-22T00:15:05.494Z,1015.71
2022-10-22T00:15:37.371Z,1015.71
2022-10-22T00:16:00.139Z,1015.71
2022-10-22T00:16:22.499Z,1015.71
2022-10-22T00:16:57.446Z,1015.71
2022-10-22T00:17:30.547Z,1015.71
2022-10-22T00:18:01.113Z,1015.71
2022-10-22T00:18:33.443Z,1015.71
2022-10-22T00:19:05.622Z,1015.71
2022-10-22T00:19:37.545Z,1015.92
2022-10-22T00:20:00.137Z,1015.92
2022-10-22T00:20:22.425Z,1015.92
2022-10-22T00:20:56.910Z,1015.92
2022-10-22T00:21:29.428Z,1016.12
2022-10-22T00:22:01.179Z,1016.12
2022-10-22T00:22:32.862Z,1016.12
2022-10-22T00:23:05.065Z,1016.12
2022-10-22T00:23:34.380Z,1015.92
2022-10-22T00:24:06.239Z,1016.02
2022-10-22T00:24:41.162Z,1016.02
2022-10-22T00:25:05.309Z,1016.02
2022-10-22T00:25:26.443Z,1016.02
2022-10-22T00:26:01.636Z,1016.02
2022-10-22T00:26:34.395Z,1016.12
2022-10-22T00:27:05.168Z,1016.12
2022-10-22T00:27:34.613Z,1016.12
2022-10-22T00:28:08.849Z,1015.92
2022-10-22T00:28:41.570Z,1015.92
2022-10-22T00:29:04.225Z,1016.12
2022-10-22T00:29:26.668Z,1016.12
2022-10-22T00:30:03.415Z,1016.12
2022-10-22T00:30:34.059Z,1016.02
2022-10-22T00:31:05.363Z,1016.02
2022-10-22T00:31:35.351Z,1016.12
2022-10-22T00:32:05.978Z,1015.92
2022-10-22T00:32:41.383Z,1015.92
2022-10-22T00:33:03.746Z,1016.12
2022-10-22T00:33:27.287Z,1016.12
2022-10-22T00:34:02.097Z,1016.12
2022-10-22T00:34:32.977Z,1016.12
2022-10-22T00:35:07.942Z,1016.12
2022-10-22T00:35:36.936Z,1016.12
2022-10-22T00:36:09.320Z,1016.12
2022-10-22T00:36:40.991Z,1016.12
2022-10-22T00:37:03.852Z,1016.22
2022-10-22T00:37:26.753Z,1016.22
2022-10-22T00:38:00.954Z,1016.22
2022-10-22T00:38:33.166Z,1016.02
2022-10-22T00:39:05.152Z,1016.02
2022-10-22T00:39:38.086Z,1016.22
2022-10-22T00:40:00.327Z,1016.02
2022-10-22T00:40:23.417Z,1016.02
2022-10-22T00:40:56.996Z,1016.02
2022-10-22T00:41:28.751Z,1016.12
2022-10-22T00:42:01.504Z,1016.12
2022-10-22T00:42:33.205Z,1016.22
2022-10-22T00:43:05.014Z,1016.22
2022-10-22T00:43:34.448Z,1016.42
2022-10-22T00:44:06.222Z,1016.22
2022-10-22T00:44:41.002Z,1016.22
2022-10-22T00:45:03.960Z,1016.02
2022-10-22T00:45:27.500Z,1016.02
2022-10-22T00:46:00.831Z,1016.02
2022-10-22T00:46:33.527Z,1016.42
2022-10-22T00:47:04.861Z,1016.42
2022-10-22T00:47:36.017Z,1016.32
2022-10-22T00:48:06.017Z,1016.22
2022-10-22T00:48:46.525Z,1016.22
2022-10-22T00:49:03.628Z,1016.32
2022-10-22T00:49:25.957Z,1016.32
2022-10-22T00:50:01.071Z,1016.32
2022-10-22T00:50:33.115Z,1016.22
2022-10-22T00:51:05.559Z,1016.22
2022-10-22T00:51:37.458Z,1016.22
2022-10-22T00:52:00.336Z,1016.32
2022-10-22T00:52:22.768Z,1016.32
2022-10-22T00:52:57.297Z,1016.32
2022-10-22T00:53:29.359Z,1016.12
2022-10-22T00:54:01.089Z,1016.12
2022-10-22T00:54:33.794Z,1016.32
2022-10-22T00:55:04.978Z,1016.32
2022-10-22T00:55:34.514Z,1016.12
2022-10-22T00:56:05.998Z,1016.12
2022-10-22T00:56:40.943Z,1016.12
2022-10-22T00:57:03.713Z,1016.02
2022-10-22T00:57:25.936Z,1016.02
2022-10-22T00:58:01.190Z,1016.02
2022-10-22T00:58:33.520Z,1016.12
2022-10-22T00:59:05.370Z,1016.12
2022-10-22T00:59:37.000Z,1016.22
2022-10-22T01:00:06.535Z,1016.12
2022-10-22T01:00:41.038Z,1016.12
2022-10-22T01:01:03.702Z,1016.22
2022-10-22T01:01:26.607Z,1016.22
2022-10-22T01:02:01.029Z,1016.22
2022-10-22T01:02:33.120Z,1016.02
2022-10-22T01:03:05.246Z,1016.02
2022-10-22T01:03:34.529Z,1016.12
2022-10-22T01:04:06.225Z,1016.12
2022-10-22T01:04:41.430Z,1016.12
2022-10-22T01:05:04.018Z,1016.02
2022-10-22T01:05:27.776Z,1016.02
2022-10-22T01:06:01.261Z,1016.02
2022-10-22T01:06:33.089Z,1015.81
2022-10-22T01:07:05.537Z,1015.81
2022-10-22T01:07:37.643Z,1016.02
2022-10-22T01:08:00.168Z,1016.02
2022-10-22T01:08:22.937Z,1016.02
2022-10-22T01:08:57.224Z,1016.02
2022-10-22T01:09:29.090Z,1016.22
2022-10-22T01:10:02.283Z,1016.22
2022-10-22T01:10:33.291Z,1015.92
2022-10-22T01:11:05.148Z,1015.92
2022-10-22T01:11:34.586Z,1016.02
2022-10-22T01:12:05.894Z,1016.32
2022-10-22T01:12:41.466Z,1016.32
2022-10-22T01:13:03.782Z,1016.12
2022-10-22T01:13:26.207Z,1016.12
2022-10-22T01:14:01.238Z,1016.12
2022-10-22T01:14:33.361Z,1016.02
2022-10-22T01:15:06.858Z,1016.02
2022-10-22T01:15:34.443Z,1016.22
2022-10-22T01:16:06.166Z,1015.92
2022-10-22T01:16:42.855Z,1015.92
2022-10-22T01:17:05.276Z,1016.12
2022-10-22T01:17:27.642Z,1016.12
2022-10-22T01:18:01.073Z,1016.12
2022-10-22T01:18:36.566Z,1016.32
2022-10-22T01:18:59.103Z,1016.32
2022-10-22T01:19:34.433Z,1016.22
2022-10-22T01:20:06.071Z,1016.12
2022-10-22T01:20:41.081Z,1016.12
2022-10-22T01:21:03.503Z,1016.12
2022-10-22T01:21:25.894Z,1016.12
2022-10-22T01:22:00.830Z,1016.12
2022-10-22T01:22:32.790Z,1016.12
2022-10-22T01:23:04.937Z,1016.12
2022-10-22T01:23:36.858Z,1016.02
2022-10-22T01:24:14.322Z,1016.12
2022-10-22T01:24:36.708Z,1016.12
2022-10-22T01:25:08.590Z,1016.02
2022-10-22T01:25:28.563Z,1016.02
2022-10-22T01:26:00.932Z,1016.02
2022-10-22T01:26:32.811Z,1016.02
2022-10-22T01:27:04.850Z,1016.02
2022-10-22T01:27:34.289Z,1015.92
2022-10-22T01:28:05.964Z,1015.92
2022-10-22T01:28:40.796Z,1015.92
2022-10-22T01:29:03.976Z,1016.12
2022-10-22T01:29:26.321Z,1016.12
2022-10-22T01:30:01.518Z,1016.12
2022-10-22T01:30:32.718Z,1016.02
2022-10-22T01:31:04.832Z,1016.02
2022-10-22T01:31:34.615Z,1016.22
2022-10-22T01:32:06.041Z,1016.12
2022-10-22T01:32:40.859Z,1016.12
2022-10-22T01:33:03.570Z,1016.12
2022-10-22T01:33:25.818Z,1016.12
2022-10-22T01:34:00.663Z,1016.12
2022-10-22T01:34:33.232Z,1015.92
2022-10-22T01:35:04.797Z,1015.92
2022-10-22T01:36:05.987Z,1015.92
2022-10-22T01:36:40.971Z,1015.92
2022-10-22T01:37:03.700Z,1016.12
2022-10-22T01:37:25.958Z,1016.12
2022-10-22T01:38:00.938Z,1016.12
2022-10-22T01:38:33.248Z,1016.02
2022-10-22T01:39:04.787Z,1016.02
2022-10-22T01:39:34.313Z,1015.81
2022-10-22T01:40:06.064Z,1015.92
2022-10-22T01:40:46.228Z,1015.92
2022-10-22T01:41:03.511Z,1015.81
2022-10-22T01:41:25.753Z,1015.81
2022-10-22T01:42:00.940Z,1015.81
2022-10-22T01:42:32.700Z,1015.71
2022-10-22T01:43:05.047Z,1015.71
2022-10-22T01:43:36.714Z,1016.02
2022-10-22T01:44:00.315Z,1015.92
2022-10-22T01:44:22.654Z,1015.92
2022-10-22T01:44:56.796Z,1015.92
2022-10-22T01:45:30.436Z,1016.02
2022-10-22T01:46:00.749Z,1016.02
2022-10-22T01:46:32.834Z,1016.12
2022-10-22T01:47:04.805Z,1016.12
2022-10-22T01:47:34.317Z,1016.02
2022-10-22T01:48:06.132Z,1016.12
2022-10-22T01:48:40.844Z,1016.12
2022-10-22T01:49:03.621Z,1015.92
2022-10-22T01:49:26.046Z,1015.92
2022-10-22T01:50:00.774Z,1015.92
2022-10-22T01:50:32.754Z,1016.02
2022-10-22T01:51:06.283Z,1016.02
2022-10-22T01:51:36.940Z,1015.92
2022-10-22T01:51:59.901Z,1016.02
2022-10-22T01:52:22.252Z,1016.02
2022-10-22T01:52:56.967Z,1016.02
2022-10-22T01:53:28.906Z,1016.02
2022-10-22T01:54:01.431Z,1016.02
2022-10-22T01:54:32.716Z,1015.92
2022-10-22T01:55:04.860Z,1015.92
2022-10-22T01:55:34.385Z,1015.71
2022-10-22T01:56:05.997Z,1016.02
2022-10-22T01:56:40.691Z,1016.02
2022-10-22T01:57:03.493Z,1015.92
2022-10-22T01:57:26.130Z,1015.92
2022-10-22T01:58:00.795Z,1015.92
2022-10-22T01:58:32.744Z,1015.92
2022-10-22T01:59:04.773Z,1015.92
2022-10-22T01:59:34.463Z,1016.02
2022-10-22T02:00:06.604Z,1015.81
2022-10-22T02:00:41.081Z,1015.81
2022-10-22T02:01:06.571Z,1015.71
2022-10-22T02:01:28.888Z,1015.71
2022-10-22T02:02:00.939Z,1015.71
2022-10-22T02:02:33.353Z,1015.92
2022-10-22T02:03:07.397Z,1015.92
2022-10-22T02:03:34.368Z,1015.81
2022-10-22T02:04:06.254Z,1015.71
2022-10-22T02:04:40.889Z,1015.71
2022-10-22T02:05:04.331Z,1015.71
2022-10-22T02:05:26.612Z,1015.71
2022-10-22T02:06:00.870Z,1015.71
2022-10-22T02:06:33.192Z,1015.81
2022-10-22T02:07:04.804Z,1015.81
2022-10-22T02:07:34.559Z,1015.81
2022-10-22T02:08:06.002Z,1015.81
2022-10-22T02:08:40.934Z,1015.81
2022-10-22T02:09:04.634Z,1015.92
2022-10-22T02:09:27.579Z,1015.92
2022-10-22T02:10:00.797Z,1015.92
2022-10-22T02:10:29.402Z,1015.61
2022-10-22T02:11:05.215Z,1015.61
2022-10-22T02:11:34.499Z,1015.71
2022-10-22T02:12:41.195Z,1015.71
2022-10-22T02:13:03.633Z,1015.81
2022-10-22T02:13:26.455Z,1015.81
2022-10-22T02:14:02.432Z,1015.71
2022-10-22T02:14:32.859Z,1015.71
2022-10-22T02:15:06.741Z,1015.71
2022-10-22T02:15:35.277Z,1015.61
2022-10-22T02:16:09.384Z,1015.81
2022-10-22T02:16:42.288Z,1015.81
2022-10-22T02:17:03.529Z,1015.61
2022-10-22T02:17:26.843Z,1015.61
2022-10-22T02:18:01.302Z,1015.61
2022-10-22T02:18:39.554Z,1015.61
2022-10-22T02:19:07.337Z,1015.61
2022-10-22T02:19:34.992Z,1015.61
2022-10-22T02:20:06.578Z,1015.61
2022-10-22T02:20:42.188Z,1015.61
2022-10-22T02:21:04.748Z,1015.71
2022-10-22T02:21:27.260Z,1015.71
2022-10-22T02:22:00.882Z,1015.71
2022-10-22T02:22:32.819Z,1015.61
2022-10-22T02:23:04.771Z,1015.61
2022-10-22T02:23:34.535Z,1015.61
2022-10-22T02:24:06.954Z,1015.51
2022-10-22T02:24:41.503Z,1015.51
2022-10-22T02:25:06.468Z,1015.44
2022-10-22T02:25:26.581Z,1015.44
2022-10-22T02:26:01.626Z,1015.44
2022-10-22T02:26:32.885Z,1015.51
2022-10-22T02:27:05.344Z,1015.51
2022-10-22T02:27:35.331Z,1015.51
2022-10-22T02:28:06.249Z,1015.51
2022-10-22T02:28:41.064Z,1015.51
2022-10-22T02:29:03.809Z,1015.61
2022-10-22T02:29:26.172Z,1015.61
2022-10-22T02:30:02.010Z,1015.61
2022-10-22T02:30:32.694Z,1015.61
2022-10-22T02:31:05.551Z,1015.61
2022-10-22T02:31:36.676Z,1015.61
2022-10-22T02:32:06.228Z,1015.34
2022-10-22T02:32:42.167Z,1015.34
2022-10-22T02:33:04.071Z,1015.61
2022-10-22T02:33:26.603Z,1015.61
2022-10-22T02:34:01.049Z,1015.61
2022-10-22T02:34:34.559Z,1015.51
2022-10-22T02:35:05.700Z,1015.51
2022-10-22T02:35:38.208Z,1015.71
2022-10-22T02:36:00.476Z,1015.51
2022-10-22T02:36:23.149Z,1015.51
2022-10-22T02:36:57.982Z,1015.51
2022-10-22T02:37:29.018Z,1015.44
2022-10-22T02:38:01.159Z,1015.44
2022-10-22T02:38:33.216Z,1015.51
2022-10-22T02:39:04.970Z,1015.51
2022-10-22T02:39:34.308Z,1015.44
2022-10-22T02:40:06.017Z,1015.71
2022-10-22T02:40:40.988Z,1015.71
2022-10-22T02:41:03.669Z,1015.81
2022-10-22T02:41:26.626Z,1015.81
2022-10-22T02:42:01.325Z,1015.81
2022-10-22T02:42:33.739Z,1015.92
2022-10-22T02:43:05.151Z,1015.92
2022-10-22T02:43:38.780Z,1015.44
2022-10-22T02:43:59.975Z,1015.61
2022-10-22T02:44:22.346Z,1015.61
2022-10-22T02:44:57.843Z,1015.61
2022-10-22T02:45:28.842Z,1015.61
2022-10-22T02:46:00.899Z,1015.61
2022-10-22T02:46:32.817Z,1015.81
2022-10-22T02:47:06.584Z,1015.81
2022-10-22T02:47:36.717Z,1015.81
2022-10-22T02:48:06.214Z,1016.02
2022-10-22T02:48:41.681Z,1016.02
2022-10-22T02:49:04.209Z,1015.92
2022-10-22T02:49:26.627Z,1015.92
2022-10-22T02:50:00.871Z,1015.92
2022-10-22T02:50:32.893Z,1015.81
2022-10-22T02:51:04.695Z,1015.81
2022-10-22T02:51:34.393Z,1015.81
2022-10-22T02:52:06.131Z,1015.51
2022-10-22T02:52:41.460Z,1015.51
2022-10-22T02:53:03.951Z,1015.61
2022-10-22T02:53:26.760Z,1015.61
2022-10-22T02:54:01.133Z,1015.61
2022-10-22T02:54:33.081Z,1015.61
2022-10-22T02:55:06.603Z,1015.61
2022-10-22T02:55:35.922Z,1015.81
2022-10-22T02:56:06.849Z,1015.51
2022-10-22T02:56:40.782Z,1015.51
2022-10-22T02:57:03.510Z,1015.71
2022-10-22T02:57:25.976Z,1015.71
2022-10-22T02:58:00.934Z,1015.71
2022-10-22T02:58:33.223Z,1015.61
2022-10-22T02:59:05.051Z,1015.61
2022-10-22T02:59:34.511Z,1015.92
2022-10-22T03:00:06.319Z,1015.81
2022-10-22T03:00:42.258Z,1015.81
2022-10-22T03:01:04.950Z,1016.02
2022-10-22T03:01:27.255Z,1016.02
2022-10-22T03:02:01.762Z,1016.02
2022-10-22T03:02:33.111Z,1015.71
2022-10-22T03:03:06.417Z,1016.02
2022-10-22T03:03:37.043Z,1016.02
2022-10-22T03:04:09.527Z,1016.12
2022-10-22T03:04:41.047Z,1016.12
2022-10-22T03:05:03.873Z,1015.81
2022-10-22T03:05:26.252Z,1015.81
2022-10-22T03:06:01.285Z,1015.81
2022-10-22T03:06:33.134Z,1015.92
2022-10-22T03:07:05.788Z,1015.92
2022-10-22T03:07:36.537Z,1015.92
2022-10-22T03:08:06.271Z,1016.12
2022-10-22T03:08:40.756Z,1016.12
2022-10-22T03:09:04.024Z,1015.92
2022-10-22T03:09:25.968Z,1015.92
2022-10-22T03:10:01.804Z,1015.92
2022-10-22T03:10:34.264Z,1016.02
2022-10-22T03:11:04.728Z,1016.02
2022-10-22T03:11:34.422Z,1016.02
2022-10-22T03:12:06.083Z,1016.02
2022-10-22T03:12:40.720Z,1016.02
2022-10-22T03:13:03.351Z,1015.92
2022-10-22T03:13:25.783Z,1015.92
2022-10-22T03:14:01.028Z,1015.92
2022-10-22T03:14:36.563Z,1016.22
2022-10-22T03:15:05.227Z,1016.22
2022-10-22T03:15:35.791Z,1016.12
2022-10-22T03:16:06.316Z,1015.92
2022-10-22T03:16:41.195Z,1015.92
2022-10-22T03:17:03.940Z,1015.92
2022-10-22T03:17:26.616Z,1015.92
2022-10-22T03:18:01.095Z,1015.92
2022-10-22T03:18:33.113Z,1015.92
2022-10-22T03:19:12.929Z,1015.92
2022-10-22T03:19:35.243Z,1015.92
2022-10-22T03:20:08.818Z,1015.92
2022-10-22T03:20:41.003Z,1016.02
2022-10-22T03:21:03.683Z,1016.02
2022-10-22T03:21:26.594Z,1016.02
2022-10-22T03:22:00.810Z,1016.02
2022-10-22T03:22:33.208Z,1016.02
2022-10-22T03:23:05.406Z,1016.02
2022-10-22T03:23:36.761Z,1015.92
2022-10-22T03:24:08.798Z,1015.81
2022-10-22T03:24:40.889Z,1015.81
2022-10-22T03:25:03.571Z,1016.12
2022-10-22T03:25:25.924Z,1016.12
2022-10-22T03:26:00.935Z,1016.12
2022-10-22T03:26:32.783Z,1016.12
2022-10-22T03:27:05.197Z,1016.12
2022-10-22T03:27:34.461Z,1016.22
2022-10-22T03:28:08.829Z,1016.22
2022-10-22T03:28:40.742Z,1016.12
2022-10-22T03:29:03.560Z,1016.22
2022-10-22T03:29:26.026Z,1016.22
2022-10-22T03:30:01.742Z,1016.22
2022-10-22T03:30:32.885Z,1016.12
2022-10-22T03:31:05.161Z,1016.12
2022-10-22T03:31:35.335Z,1015.92
2022-10-22T03:32:06.064Z,1016.12
2022-10-22T03:32:40.719Z,1016.12
2022-10-22T03:33:03.456Z,1016.12
2022-10-22T03:33:26.215Z,1016.12
2022-10-22T03:34:00.728Z,1016.12
2022-10-22T03:34:33.228Z,1016.22
2022-10-22T03:35:05.510Z,1016.22
2022-10-22T03:35:34.571Z,1016.22
2022-10-22T03:36:09.576Z,1016.22
2022-10-22T03:36:42.421Z,1016.12
2022-10-22T03:37:04.746Z,1016.12
2022-10-22T03:37:27.820Z,1016.12
2022-10-22T03:38:01.161Z,1016.12
2022-10-22T03:38:32.739Z,1016.22
2022-10-22T03:39:04.719Z,1016.22
2022-10-22T03:39:35.490Z,1016.02
2022-10-22T03:40:08.808Z,1016.02
2022-10-22T03:40:42.731Z,1016.02
2022-10-22T03:41:03.979Z,1016.22
2022-10-22T03:41:26.556Z,1016.22
2022-10-22T03:42:04.989Z,1016.02
2022-10-22T03:42:33.238Z,1016.02
2022-10-22T03:43:05.105Z,1016.02
2022-10-22T03:43:34.754Z,1016.12
2022-10-22T03:44:09.130Z,1016.12
2022-10-22T03:44:41.220Z,1016.12
2022-10-22T03:45:03.864Z,1016.32
2022-10-22T03:45:26.831Z,1016.32
2022-10-22T03:46:01.055Z,1016.32
2022-10-22T03:46:32.923Z,1016.32
2022-10-22T03:47:04.963Z,1016.32
2022-10-22T03:47:34.902Z,1016.12
2022-10-22T03:48:08.794Z,1016.12
2022-10-22T03:48:40.758Z,1016.02
2022-10-22T03:49:03.454Z,1016.22
2022-10-22T03:49:25.855Z,1016.22
2022-10-22T03:50:01.802Z,1016.22
2022-10-22T03:50:32.932Z,1015.92
2022-10-22T03:51:04.950Z,1015.92
2022-10-22T03:51:34.314Z,1016.32
2022-10-22T03:52:09.347Z,1016.32
2022-10-22T03:52:40.731Z,1016.12
2022-10-22T03:53:03.605Z,1016.22
2022-10-22T03:53:25.806Z,1016.22
2022-10-22T03:54:00.961Z,1016.22
2022-10-22T03:54:33.248Z,1016.32
2022-10-22T03:55:06.794Z,1016.32
2022-10-22T03:55:37.252Z,1016.22
2022-10-22T03:56:09.403Z,1016.22
2022-10-22T03:56:40.820Z,1016.63
2022-10-22T03:57:03.952Z,1016.52
2022-10-22T03:57:26.067Z,1016.52
2022-10-22T03:58:01.310Z,1016.52
2022-10-22T03:58:33.692Z,1016.22
2022-10-22T03:59:05.529Z,1016.22
2022-10-22T03:59:36.707Z,1016.32
2022-10-22T04:00:06.665Z,1016.52
2022-10-22T04:00:40.643Z,1016.52
2022-10-22T04:01:03.908Z,1016.32
2022-10-22T04:01:27.562Z,1016.32
2022-10-22T04:02:01.054Z,1016.32
2022-10-22T04:02:33.661Z,1016.32
2022-10-22T04:03:05.367Z,1016.32
2022-10-22T04:03:34.646Z,1016.32
2022-10-22T04:04:06.561Z,1016.42
2022-10-22T04:04:41.818Z,1016.42
2022-10-22T04:05:04.768Z,1016.42
2022-10-22T04:05:26.950Z,1016.42
2022-10-22T04:06:01.157Z,1016.42
2022-10-22T04:06:32.755Z,1016.32
2022-10-22T04:07:05.536Z,1016.32
2022-10-22T04:07:34.558Z,1016.63
2022-10-22T04:08:08.895Z,1016.63
2022-10-22T04:08:41.193Z,1016.42
2022-10-22T04:09:04.122Z,1016.52
2022-10-22T04:09:27.556Z,1016.52
2022-10-22T04:10:00.749Z,1016.52
2022-10-22T04:10:33.376Z,1016.52
2022-10-22T04:11:04.722Z,1016.52
2022-10-22T04:11:34.400Z,1016.52
2022-10-22T04:12:08.823Z,1016.52
2022-10-22T04:12:40.975Z,1016.32
2022-10-22T04:13:03.870Z,1016.52
2022-10-22T04:13:26.466Z,1016.52
2022-10-22T04:14:01.520Z,1016.52
2022-10-22T04:14:32.876Z,1016.42
2022-10-22T04:15:05.517Z,1016.42
2022-10-22T04:15:35.299Z,1016.52
2022-10-22T04:16:09.114Z,1016.52
2022-10-22T04:16:41.326Z,1016.52
2022-10-22T04:17:03.520Z,1016.52
2022-10-22T04:17:26.207Z,1016.52
2022-10-22T04:18:01.068Z,1016.52
2022-10-22T04:18:32.856Z,1016.32
2022-10-22T04:19:04.861Z,1016.32
2022-10-22T04:19:35.134Z,1016.42
2022-10-22T04:20:06.322Z,1016.52
2022-10-22T04:20:41.848Z,1016.52
2022-10-22T04:21:04.543Z,1016.73
2022-10-22T04:21:27.567Z,1016.73
2022-10-22T04:22:00.883Z,1016.73
2022-10-22T04:22:32.614Z,1016.63
2022-10-22T04:23:05.122Z,1016.63
2022-10-22T04:23:34.449Z,1016.42
2022-10-22T04:24:09.157Z,1016.42
2022-10-22T04:24:41.112Z,1016.52
2022-10-22T04:25:03.827Z,1016.42
2022-10-22T04:25:26.331Z,1016.42
2022-10-22T04:26:00.675Z,1016.42
2022-10-22T04:26:32.809Z,1016.63
2022-10-22T04:27:04.714Z,1016.63
2022-10-22T04:27:35.347Z,1016.83
2022-10-22T04:28:08.682Z,1016.83
2022-10-22T04:28:42.131Z,1016.52
2022-10-22T04:29:04.295Z,1016.63
2022-10-22T04:29:26.808Z,1016.63
2022-10-22T04:30:00.775Z,1016.63
2022-10-22T04:30:33.102Z,1016.42
2022-10-22T04:31:04.645Z,1016.42
2022-10-22T04:31:34.673Z,1016.63
2022-10-22T04:32:08.802Z,1016.63
2022-10-22T04:32:40.749Z,1016.42
2022-10-22T04:33:03.406Z,1016.73
2022-10-22T04:33:26.229Z,1016.73
2022-10-22T04:34:00.891Z,1016.73
2022-10-22T04:34:32.715Z,1016.42
2022-10-22T04:35:04.991Z,1016.42
2022-10-22T04:35:34.668Z,1016.32
2022-10-22T04:36:08.731Z,1016.32
2022-10-22T04:36:44.128Z,1016.63
2022-10-22T04:37:09.049Z,1016.52
2022-10-22T04:37:28.456Z,1016.52
2022-10-22T04:38:01.088Z,1016.52
2022-10-22T04:38:33.446Z,1016.73
2022-10-22T04:39:05.388Z,1016.73
2022-10-22T04:39:36.703Z,1016.32
2022-10-22T04:40:10.600Z,1016.83
2022-10-22T04:40:41.793Z,1016.83
2022-10-22T04:41:04.390Z,1016.52
2022-10-22T04:41:27.478Z,1016.52
2022-10-22T04:42:01.207Z,1016.52
2022-10-22T04:42:33.029Z,1016.52
2022-10-22T04:43:05.284Z,1016.52
2022-10-22T04:43:35.867Z,1016.42
2022-10-22T04:44:12.319Z,1016.42
2022-10-22T04:44:41.202Z,1016.63
2022-10-22T04:45:04.266Z,1016.52
2022-10-22T04:45:26.494Z,1016.52
2022-10-22T04:46:01.830Z,1016.52
2022-10-22T04:46:32.775Z,1016.52
2022-10-22T04:47:04.859Z,1016.52
2022-10-22T04:47:34.376Z,1016.52
2022-10-22T04:48:09.448Z,1016.52
2022-10-22T04:48:40.749Z,1016.42
2022-10-22T04:49:03.477Z,1016.32
2022-10-22T04:49:26.368Z,1016.32
2022-10-22T04:50:00.656Z,1016.32
2022-10-22T04:50:32.818Z,1016.42
2022-10-22T04:51:04.797Z,1016.42
2022-10-22T04:51:34.825Z,1016.42
2022-10-22T04:52:08.844Z,1016.42
2022-10-22T04:52:40.868Z,1016.32
2022-10-22T04:53:05.152Z,1016.42
2022-10-22T04:53:26.186Z,1016.42
2022-10-22T04:54:02.233Z,1016.42
2022-10-22T04:54:33.243Z,1016.32
2022-10-22T04:55:04.655Z,1016.32
2022-10-22T04:55:34.618Z,1016.42
2022-10-22T04:56:09.511Z,1016.42
2022-10-22T04:56:40.620Z,1016.42
2022-10-22T04:57:03.421Z,1016.42
2022-10-22T04:57:25.792Z,1016.42
2022-10-22T04:58:00.696Z,1016.42
2022-10-22T04:58:33.855Z,1016.42
2022-10-22T04:59:05.847Z,1016.42
2022-10-22T04:59:36.764Z,1016.42
2022-10-22T05:00:08.874Z,1016.42
2022-10-22T05:00:40.958Z,1016.42
2022-10-22T05:01:04.142Z,1016.63
2022-10-22T05:01:26.857Z,1016.63
2022-10-22T05:02:01.011Z,1016.63
2022-10-22T05:02:33.165Z,1016.42
2022-10-22T05:03:05.381Z,1016.42
2022-10-22T05:03:34.417Z,1016.52
2022-10-22T05:04:08.633Z,1016.52
2022-10-22T05:04:43.255Z,1016.32
2022-10-22T05:05:03.653Z,1016.42
2022-10-22T05:05:26.713Z,1016.42
2022-10-22T05:06:00.710Z,1016.42
2022-10-22T05:06:32.939Z,1016.42
2022-10-22T05:07:05.182Z,1016.42
2022-10-22T05:07:34.475Z,1016.42
2022-10-22T05:08:08.982Z,1016.42
2022-10-22T05:08:41.329Z,1016.32
2022-10-22T05:09:04.546Z,1016.42
2022-10-22T05:09:26.514Z,1016.42
2022-10-22T05:10:01.018Z,1016.42
2022-10-22T05:10:32.848Z,1016.63
2022-10-22T05:11:05.186Z,1016.63
2022-10-22T05:11:34.561Z,1016.42
2022-10-22T05:12:08.666Z,1016.42
2022-10-22T05:12:40.537Z,1016.63
2022-10-22T05:13:03.248Z,1016.52
2022-10-22T05:13:26.103Z,1016.52
2022-10-22T05:14:01.421Z,1016.52
2022-10-22T05:14:32.854Z,1016.63
2022-10-22T05:15:07.204Z,1016.63
2022-10-22T05:15:35.264Z,1016.63
2022-10-22T05:16:12.807Z,1016.42
2022-10-22T05:16:41.230Z,1016.42
2022-10-22T05:17:03.795Z,1016.52
2022-10-22T05:17:26.228Z,1016.52
2022-10-22T05:18:01.063Z,1016.52
2022-10-22T05:18:33.083Z,1016.73
2022-10-22T05:19:05.476Z,1016.73
2022-10-22T05:19:40.101Z,1016.52
2022-10-22T05:20:02.677Z,1016.52
2022-10-22T05:20:41.145Z,1016.73
2022-10-22T05:21:03.833Z,1016.83
2022-10-22T05:21:27.221Z,1016.83
2022-10-22T05:22:00.897Z,1016.83
2022-10-22T05:22:33.499Z,1016.83
2022-10-22T05:23:04.595Z,1016.83
2022-10-22T05:23:34.647Z,1016.73
2022-10-22T05:24:08.604Z,1016.73
2022-10-22T05:24:40.831Z,1016.83
2022-10-22T05:25:03.480Z,1017.03
2022-10-22T05:25:25.806Z,1017.03
2022-10-22T05:26:00.690Z,1017.03
2022-10-22T05:26:32.695Z,1016.83
2022-10-22T05:27:05.431Z,1016.83
2022-10-22T05:27:37.917Z,1016.93
2022-10-22T05:28:09.667Z,1016.93
2022-10-22T05:28:40.554Z,1016.63
2022-10-22T05:29:03.258Z,1016.83
2022-10-22T05:29:25.829Z,1016.83
2022-10-22T05:30:00.940Z,1016.83
2022-10-22T05:30:32.965Z,1016.83
2022-10-22T05:31:05.363Z,1016.83
2022-10-22T05:31:35.188Z,1017.03
2022-10-22T05:32:11.167Z,1017.03
2022-10-22T05:32:40.891Z,1016.63
2022-10-22T05:33:03.749Z,1016.83
2022-10-22T05:33:26.017Z,1016.83
2022-10-22T05:34:01.666Z,1016.83
2022-10-22T05:34:32.786Z,1016.63
2022-10-22T05:35:04.680Z,1016.63
2022-10-22T05:35:34.503Z,1016.93
2022-10-22T05:36:08.641Z,1016.93
2022-10-22T05:36:41.111Z,1017.03
2022-10-22T05:37:03.857Z,1016.73
2022-10-22T05:37:26.459Z,1016.73
2022-10-22T05:38:00.815Z,1016.73
2022-10-22T05:38:33.521Z,1016.83
2022-10-22T05:39:05.277Z,1016.83
2022-10-22T05:39:34.534Z,1016.73
2022-10-22T05:40:19.235Z,1016.73
2022-10-22T05:40:41.460Z,1016.83
2022-10-22T05:41:04.093Z,1016.83
2022-10-22T05:41:26.567Z,1016.83
2022-10-22T05:42:01.392Z,1016.83
2022-10-22T05:42:33.562Z,1016.83
2022-10-22T05:43:04.821Z,1016.83
2022-10-22T05:43:34.725Z,1016.83
2022-10-22T05:44:09.522Z,1016.83
2022-10-22T05:44:40.833Z,1016.93
2022-10-22T05:45:03.778Z,1016.73
2022-10-22T05:45:26.146Z,1016.73
2022-10-22T05:46:01.061Z,1016.73
2022-10-22T05:46:32.686Z,1016.83
2022-10-22T05:47:04.831Z,1016.83
2022-10-22T05:47:34.500Z,1016.93
2022-10-22T05:48:08.707Z,1016.93
2022-10-22T05:48:41.405Z,1016.83
2022-10-22T05:49:04.247Z,1016.83
2022-10-22T05:49:26.536Z,1016.83
2022-10-22T05:50:01.674Z,1016.83
2022-10-22T05:50:32.898Z,1016.73
2022-10-22T05:51:04.694Z,1016.73
2022-10-22T05:51:34.618Z,1016.83
2022-10-22T05:52:09.003Z,1016.83
2022-10-22T05:52:41.806Z,1017.03
2022-10-22T05:53:04.309Z,1016.93
2022-10-22T05:53:27.157Z,1016.93
2022-10-22T05:54:02.272Z,1016.93
2022-10-22T05:54:33.331Z,1016.93
2022-10-22T05:55:04.856Z,1016.93
2022-10-22T05:55:34.879Z,1016.93
2022-10-22T05:56:08.893Z,1016.93
2022-10-22T05:56:40.912Z,1016.83
2022-10-22T05:57:03.530Z,1016.93
2022-10-22T05:57:28.479Z,1016.93
2022-10-22T05:58:01.283Z,1016.93
2022-10-22T05:58:34.926Z,1017.13
2022-10-22T05:59:05.198Z,1017.13
2022-10-22T05:59:34.643Z,1016.83
2022-10-22T06:00:12.813Z,1016.83
2022-10-22T06:00:40.788Z,1016.93
2022-10-22T06:01:06.140Z,1016.93
2022-10-22T06:01:28.062Z,1016.93
2022-10-22T06:02:02.865Z,1017.03
2022-10-22T06:02:33.003Z,1017.03
2022-10-22T06:03:06.411Z,1017.03
2022-10-22T06:03:35.029Z,1016.83